createdAt,value
2024-02-24T00:01:48.929Z,6.40
2024-02-24T00:04:15.988Z,6.40
2024-02-24T00:06:43.120Z,6.30
2024-02-24T00:09:10.532Z,6.40
2024-02-24T00:11:37.675Z,6.40
2024-02-24T00:14:04.857Z,6.40
2024-02-24T00:16:31.926Z,6.50
2024-02-24T00:19:00.884Z,6.40
2024-02-24T00:21:28.693Z,6.50
2024-02-24T00:23:55.712Z,6.50
2024-02-24T00:26:22.773Z,6.50
2024-02-24T00:28:50.942Z,6.50
2024-02-24T00:31:18.286Z,6.40
2024-02-24T00:33:45.341Z,6.40
2024-02-24T00:36:12.490Z,6.30
2024-02-24T00:38:40.054Z,6.30
2024-02-24T00:41:07.401Z,6.20
2024-02-24T00:43:34.439Z,6.20
2024-02-24T00:46:01.654Z,6.10
2024-02-24T00:48:30.104Z,6.10
2024-02-24T00:50:57.615Z,6.10
2024-02-24T00:53:25.495Z,6.10
2024-02-24T00:55:52.541Z,6.00
2024-02-24T00:58:19.542Z,6.00
2024-02-24T01:00:46.564Z,6.00
2024-02-24T01:03:13.662Z,6.00
2024-02-24T01:05:43.095Z,6.00
2024-02-24T01:08:10.253Z,5.90
2024-02-24T01:10:37.295Z,6.00
2024-02-24T01:13:04.505Z,5.90
2024-02-24T01:15:33.577Z,5.90
2024-02-24T01:18:01.567Z,5.90
2024-02-24T01:20:30.317Z,5.90
2024-02-24T01:22:59.410Z,5.90
2024-02-24T01:25:26.556Z,5.90
2024-02-24T01:27:54.771Z,5.80
2024-02-24T01:30:22.049Z,5.80
2024-02-24T01:32:49.441Z,5.80
2024-02-24T01:35:16.708Z,5.80
2024-02-24T01:37:43.844Z,5.80
2024-02-24T01:40:11.093Z,5.70
2024-02-24T01:42:38.225Z,5.70
2024-02-24T01:45:05.707Z,5.70
2024-02-24T01:47:32.875Z,5.70
2024-02-24T01:50:00.306Z,5.70
2024-02-24T01:52:27.985Z,5.70
2024-02-24T01:54:56.805Z,5.60
2024-02-24T01:57:26.625Z,5.60
2024-02-24T01:59:55.483Z,5.60
2024-02-24T02:02:23.678Z,5.60
2024-02-24T02:04:50.718Z,5.50
2024-02-24T02:07:17.769Z,5.50
2024-02-24T02:09:59.236Z,5.50
2024-02-24T02:12:27.660Z,5.50
2024-02-24T02:14:55.122Z,5.40
2024-02-24T02:17:22.637Z,5.40
2024-02-24T02:19:49.797Z,5.40
2024-02-24T02:22:18.296Z,5.40
2024-02-24T02:24:46.019Z,5.30
2024-02-24T02:27:13.659Z,5.30
2024-02-24T02:29:40.819Z,5.30
2024-02-24T02:32:09.521Z,5.30
2024-02-24T02:34:37.016Z,5.20
2024-02-24T02:37:04.703Z,5.20
2024-02-24T02:39:32.251Z,5.20
2024-02-24T02:41:59.337Z,5.20
2024-02-24T02:44:26.576Z,5.10
2024-02-24T02:46:53.878Z,5.10
2024-02-24T02:49:20.995Z,5.10
2024-02-24T02:51:47.999Z,5.10
2024-02-24T02:54:15.183Z,5.10
2024-02-24T02:56:42.251Z,5.10
2024-02-24T02:59:09.373Z,5.10
2024-02-24T03:01:36.332Z,5.00
2024-02-24T03:04:03.517Z,5.00
2024-02-24T03:06:34.484Z,5.00
2024-02-24T03:09:01.453Z,5.00
2024-02-24T03:11:28.673Z,5.00
2024-02-24T03:13:56.147Z,4.90
2024-02-24T03:16:23.135Z,4.90
2024-02-24T03:18:51.200Z,4.90
2024-02-24T03:21:33.783Z,4.90
2024-02-24T03:24:01.425Z,4.90
2024-02-24T03:26:28.737Z,4.80
2024-02-24T03:28:55.861Z,4.80
2024-02-24T03:31:22.781Z,4.80
2024-02-24T03:33:49.981Z,4.80
2024-02-24T03:36:19.660Z,4.70
2024-02-24T03:38:47.117Z,4.70
2024-02-24T03:41:14.114Z,4.70
2024-02-24T03:43:41.277Z,4.70
2024-02-24T03:46:08.677Z,4.70
2024-02-24T03:48:36.490Z,4.70
2024-02-24T03:51:03.656Z,4.60
2024-02-24T03:53:30.705Z,4.60
2024-02-24T03:55:57.727Z,4.60
2024-02-24T03:58:24.734Z,4.60
2024-02-24T04:00:52.617Z,4.60
2024-02-24T04:03:20.135Z,4.60
2024-02-24T04:05:50.133Z,4.60
2024-02-24T04:08:17.394Z,4.60
2024-02-24T04:10:45.475Z,4.60
2024-02-24T04:13:12.633Z,4.60
2024-02-24T04:15:39.657Z,4.60
2024-02-24T04:18:07.303Z,4.60
2024-02-24T04:20:34.502Z,4.60
2024-02-24T04:23:01.457Z,4.60
2024-02-24T04:25:28.507Z,4.60
2024-02-24T04:27:55.440Z,4.50
2024-02-24T04:30:22.456Z,4.50
2024-02-24T04:32:50.104Z,4.50
2024-02-24T04:35:17.120Z,4.50
2024-02-24T04:37:44.061Z,4.50
2024-02-24T04:40:11.294Z,4.50
2024-02-24T04:42:38.340Z,4.40
2024-02-24T04:45:06.218Z,4.40
2024-02-24T04:47:33.347Z,4.40
2024-02-24T04:50:01.308Z,4.40
2024-02-24T04:52:28.395Z,4.40
2024-02-24T04:54:55.404Z,4.30
2024-02-24T04:57:22.420Z,4.30
2024-02-24T04:59:49.408Z,4.30
2024-02-24T05:02:16.459Z,4.30
2024-02-24T05:04:43.472Z,4.30
2024-02-24T05:07:10.525Z,4.30
2024-02-24T05:09:37.450Z,4.20
2024-02-24T05:12:04.839Z,4.30
2024-02-24T05:14:31.776Z,4.20
2024-02-24T05:16:58.735Z,4.20
2024-02-24T05:19:26.146Z,4.20
2024-02-24T05:21:53.181Z,4.20
2024-02-24T05:24:20.149Z,4.20
2024-02-24T05:26:47.117Z,4.20
2024-02-24T05:29:15.397Z,4.10
2024-02-24T05:31:42.349Z,4.10
2024-02-24T05:34:09.423Z,4.10
2024-02-24T05:36:37.429Z,4.10
2024-02-24T05:39:05.457Z,4.10
2024-02-24T05:41:32.580Z,4.10
2024-02-24T05:43:59.636Z,4.10
2024-02-24T05:46:26.568Z,4.10
2024-02-24T05:48:53.555Z,4.00
2024-02-24T05:51:22.581Z,4.00
2024-02-24T05:53:50.269Z,4.10
2024-02-24T05:56:17.505Z,4.10
2024-02-24T05:58:44.516Z,4.00
2024-02-24T06:01:11.509Z,4.00
2024-02-24T06:03:38.696Z,4.00
2024-02-24T06:06:08.838Z,4.00
2024-02-24T06:08:36.367Z,4.00
2024-02-24T06:11:03.391Z,4.00
2024-02-24T06:13:30.421Z,4.10
2024-02-24T06:15:57.639Z,4.10
2024-02-24T06:18:25.199Z,4.10
2024-02-24T06:20:54.121Z,4.10
2024-02-24T06:23:21.451Z,4.10
2024-02-24T06:25:48.437Z,4.10
2024-02-24T06:28:15.744Z,4.10
2024-02-24T06:30:42.969Z,4.00
2024-02-24T06:33:10.249Z,4.00
2024-02-24T06:35:37.586Z,4.00
2024-02-24T06:38:05.059Z,4.00
2024-02-24T06:40:37.673Z,4.00
2024-02-24T06:43:12.411Z,4.00
2024-02-24T06:45:39.746Z,4.00
2024-02-24T06:48:07.146Z,4.10
2024-02-24T06:50:34.360Z,4.10
2024-02-24T06:53:01.349Z,4.00
2024-02-24T06:55:28.442Z,4.10
2024-02-24T06:57:55.362Z,4.10
2024-02-24T07:00:24.391Z,4.10
2024-02-24T07:02:52.215Z,4.10
2024-02-24T07:05:19.331Z,4.20
2024-02-24T07:07:46.355Z,4.10
2024-02-24T07:10:13.394Z,4.20
2024-02-24T07:12:43.339Z,4.20
2024-02-24T07:15:11.537Z,4.20
2024-02-24T07:17:38.867Z,4.20
2024-02-24T07:20:06.628Z,4.20
2024-02-24T07:22:33.565Z,4.20
2024-02-24T07:25:00.535Z,4.20
2024-02-24T07:27:27.454Z,4.20
2024-02-24T07:29:55.129Z,4.30
2024-02-24T07:32:22.380Z,4.40
2024-02-24T07:34:49.973Z,4.40
2024-02-24T07:37:17.682Z,4.50
2024-02-24T07:39:45.102Z,4.60
2024-02-24T07:42:12.435Z,4.60
2024-02-24T07:44:40.112Z,4.70
2024-02-24T07:47:09.283Z,4.80
2024-02-24T07:49:36.996Z,4.80
2024-02-24T07:52:05.474Z,4.80
2024-02-24T07:54:32.441Z,4.90
2024-02-24T07:56:59.387Z,4.90
2024-02-24T07:59:26.387Z,4.90
2024-02-24T08:01:53.336Z,5.00
2024-02-24T08:04:21.820Z,5.00
2024-02-24T08:06:49.328Z,5.10
2024-02-24T08:09:16.794Z,5.10
2024-02-24T08:11:44.295Z,5.20
2024-02-24T08:14:11.715Z,5.30
2024-02-24T08:16:39.495Z,5.40
2024-02-24T08:19:10.272Z,5.50
2024-02-24T08:21:39.000Z,5.60
2024-02-24T08:24:09.230Z,5.60
2024-02-24T08:26:44.648Z,5.70
2024-02-24T08:29:12.035Z,5.80
2024-02-24T08:31:40.004Z,5.90
2024-02-24T08:34:07.647Z,5.90
2024-02-24T08:36:35.332Z,6.00
2024-02-24T08:39:03.503Z,6.00
2024-02-24T08:41:33.404Z,6.10
2024-02-24T08:44:04.864Z,6.20
2024-02-24T08:46:31.783Z,6.20
2024-02-24T08:48:59.628Z,6.20
2024-02-24T08:51:29.727Z,6.30
2024-02-24T08:53:56.903Z,6.30
2024-02-24T08:56:24.574Z,6.40
2024-02-24T08:58:52.021Z,6.40
2024-02-24T09:01:19.835Z,6.40
2024-02-24T09:03:47.256Z,6.50
2024-02-24T09:06:14.564Z,6.50
2024-02-24T09:08:41.822Z,6.50
2024-02-24T09:11:08.933Z,6.50
2024-02-24T09:13:36.127Z,6.50
2024-02-24T09:16:03.184Z,6.50
2024-02-24T09:18:31.822Z,6.60
2024-02-24T09:20:58.948Z,6.60
2024-02-24T09:23:26.199Z,6.60
2024-02-24T09:25:53.244Z,6.70
2024-02-24T09:28:20.336Z,6.80
2024-02-24T09:30:47.880Z,6.80
2024-02-24T09:33:15.106Z,6.80
2024-02-24T09:35:42.417Z,6.80
2024-02-24T09:38:09.405Z,6.90
2024-02-24T09:40:36.461Z,6.90
2024-02-24T09:43:04.971Z,7.00
2024-02-24T09:45:37.021Z,7.00
2024-02-24T09:48:04.473Z,7.00
2024-02-24T09:50:31.863Z,7.00
2024-02-24T09:52:59.042Z,7.00
2024-02-24T09:55:26.471Z,7.00
2024-02-24T09:57:57.102Z,7.00
2024-02-24T10:00:28.020Z,7.00
2024-02-24T10:02:55.349Z,7.00
2024-02-24T10:05:22.544Z,7.10
2024-02-24T10:07:49.583Z,7.10
2024-02-24T10:10:18.063Z,7.10
2024-02-24T10:12:59.115Z,7.20
2024-02-24T10:15:26.781Z,7.30
2024-02-24T10:18:00.476Z,7.40
2024-02-24T10:20:28.787Z,7.50
2024-02-24T10:22:56.153Z,7.50
2024-02-24T10:25:23.239Z,7.60
2024-02-24T10:27:50.453Z,7.70
2024-02-24T10:30:20.082Z,7.80
2024-02-24T10:32:53.462Z,8.10
2024-02-24T10:35:21.031Z,8.30
2024-02-24T10:38:03.873Z,8.30
2024-02-24T10:40:37.267Z,8.30
2024-02-24T10:43:05.811Z,8.30
2024-02-24T10:45:33.338Z,8.30
2024-02-24T10:48:00.708Z,8.20
2024-02-24T10:50:27.865Z,8.20
2024-02-24T10:52:56.700Z,8.30
2024-02-24T10:55:25.102Z,8.60
2024-02-24T10:57:56.079Z,8.90
2024-02-24T11:00:35.822Z,9.00
2024-02-24T11:03:05.598Z,8.90
2024-02-24T11:05:34.129Z,8.90
2024-02-24T11:08:03.115Z,8.80
2024-02-24T11:10:35.959Z,8.70
2024-02-24T11:13:03.619Z,8.60
2024-02-24T11:15:30.866Z,8.50
2024-02-24T11:17:59.390Z,8.50
2024-02-24T11:20:47.234Z,8.60
2024-02-24T11:23:33.128Z,8.90
2024-02-24T11:26:13.564Z,9.20
2024-02-24T11:28:42.132Z,9.50
2024-02-24T11:31:09.121Z,9.80
2024-02-24T11:33:40.254Z,9.90
2024-02-24T11:36:08.067Z,9.90
2024-02-24T11:38:35.413Z,9.80
2024-02-24T11:41:06.555Z,10.00
2024-02-24T11:43:34.217Z,10.50
2024-02-24T11:46:02.432Z,10.80
2024-02-24T11:48:29.522Z,10.90
2024-02-24T11:50:56.761Z,10.60
2024-02-24T11:53:24.692Z,10.50
2024-02-24T11:55:51.858Z,10.80
2024-02-24T11:58:19.050Z,10.90
2024-02-24T12:00:46.725Z,11.20
2024-02-24T12:03:17.761Z,11.70
2024-02-24T12:05:45.092Z,13.10
2024-02-24T12:08:15.674Z,13.80
2024-02-24T12:10:42.907Z,13.30
2024-02-24T12:13:11.681Z,12.60
2024-02-24T12:15:44.445Z,12.10
2024-02-24T12:18:14.849Z,11.60
2024-02-24T12:20:43.782Z,11.40
2024-02-24T12:23:11.985Z,11.70
2024-02-24T12:25:39.286Z,12.60
2024-02-24T12:28:06.931Z,13.90
2024-02-24T12:30:42.088Z,14.30
2024-02-24T12:33:18.109Z,13.70
2024-02-24T12:35:48.640Z,13.00
2024-02-24T12:38:19.689Z,13.00
2024-02-24T12:40:47.081Z,12.70
2024-02-24T12:43:14.458Z,12.00
2024-02-24T12:45:41.795Z,11.20
2024-02-24T12:48:09.395Z,10.70
2024-02-24T12:50:37.006Z,10.30
2024-02-24T12:53:08.964Z,9.90
2024-02-24T12:55:36.408Z,9.20
2024-02-24T12:58:03.913Z,8.40
2024-02-24T13:00:30.999Z,7.90
2024-02-24T13:03:00.360Z,7.60
2024-02-24T13:05:27.761Z,7.20
2024-02-24T13:07:54.957Z,6.90
2024-02-24T13:10:22.800Z,6.80
2024-02-24T13:12:50.007Z,6.80
2024-02-24T13:15:17.349Z,6.90
2024-02-24T13:17:44.582Z,7.70
2024-02-24T13:20:11.674Z,9.00
2024-02-24T13:22:41.628Z,9.20
2024-02-24T13:25:10.195Z,8.90
2024-02-24T13:27:37.267Z,8.60
2024-02-24T13:30:06.046Z,8.40
2024-02-24T13:32:33.478Z,8.30
2024-02-24T13:35:00.511Z,8.40
2024-02-24T13:37:28.905Z,8.30
2024-02-24T13:39:55.950Z,8.00
2024-02-24T13:42:23.068Z,7.90
2024-02-24T13:44:49.986Z,7.90
2024-02-24T13:47:17.821Z,7.90
2024-02-24T13:49:45.019Z,8.00
2024-02-24T13:52:12.090Z,8.00
2024-02-24T13:54:39.110Z,8.00
2024-02-24T13:57:06.148Z,8.00
2024-02-24T13:59:33.196Z,7.90
2024-02-24T14:02:00.271Z,7.80
2024-02-24T14:04:27.592Z,7.70
2024-02-24T14:06:54.933Z,7.70
2024-02-24T14:09:21.973Z,7.60
2024-02-24T14:11:49.091Z,7.50
2024-02-24T14:14:16.222Z,7.40
2024-02-24T14:16:46.500Z,7.40
2024-02-24T14:19:14.385Z,7.30
2024-02-24T14:21:41.591Z,7.30
2024-02-24T14:24:08.831Z,7.20
2024-02-24T14:26:35.810Z,7.20
2024-02-24T14:29:03.221Z,7.20
2024-02-24T14:31:32.225Z,7.10
2024-02-24T14:34:00.604Z,7.10
2024-02-24T14:36:27.824Z,7.10
2024-02-24T14:38:54.898Z,7.10
2024-02-24T14:41:22.793Z,7.10
2024-02-24T14:43:50.018Z,7.10
2024-02-24T14:46:16.970Z,7.10
2024-02-24T14:48:44.926Z,7.10
2024-02-24T14:51:12.005Z,7.10
2024-02-24T14:53:39.029Z,7.00
2024-02-24T14:56:06.291Z,6.90
2024-02-24T14:58:33.262Z,6.80
2024-02-24T15:01:00.315Z,6.70
2024-02-24T15:03:27.418Z,6.60
2024-02-24T15:05:54.552Z,6.60
2024-02-24T15:08:21.738Z,6.40
2024-02-24T15:10:48.739Z,6.30
2024-02-24T15:13:23.204Z,6.20
2024-02-24T15:15:54.675Z,6.10
2024-02-24T15:18:21.754Z,6.00
2024-02-24T15:20:48.943Z,6.00
2024-02-24T15:23:16.122Z,6.00
2024-02-24T15:25:46.384Z,6.00
2024-02-24T15:28:14.785Z,6.00
2024-02-24T15:30:41.996Z,6.10
2024-02-24T15:33:15.210Z,6.10
2024-02-24T15:35:42.390Z,6.10
2024-02-24T15:38:09.697Z,6.20
2024-02-24T15:40:39.801Z,6.20
2024-02-24T15:43:08.961Z,6.20
2024-02-24T15:45:36.166Z,6.30
2024-02-24T15:48:04.024Z,6.30
2024-02-24T15:50:31.216Z,6.30
2024-02-24T15:52:58.246Z,6.40
2024-02-24T15:55:38.721Z,6.40
2024-02-24T15:58:05.928Z,6.40
2024-02-24T16:00:32.907Z,6.40
2024-02-24T16:03:02.892Z,6.40
2024-02-24T16:05:31.948Z,6.30
2024-02-24T16:08:04.186Z,6.30
2024-02-24T16:10:49.946Z,6.30
2024-02-24T16:13:20.756Z,6.30
2024-02-24T16:15:47.820Z,6.30
2024-02-24T16:18:16.423Z,6.30
2024-02-24T16:20:43.991Z,6.30
2024-02-24T16:23:11.622Z,6.30
2024-02-24T16:25:38.604Z,6.30
2024-02-24T16:28:06.455Z,6.30
2024-02-24T16:30:33.380Z,6.30
2024-02-24T16:33:00.543Z,6.30
2024-02-24T16:35:39.112Z,6.20
2024-02-24T16:38:06.280Z,6.20
2024-02-24T16:40:33.617Z,6.20
2024-02-24T16:43:00.639Z,6.20
2024-02-24T16:45:28.316Z,6.10
2024-02-24T16:47:55.599Z,6.10
2024-02-24T16:50:24.851Z,6.10
2024-02-24T16:52:52.796Z,6.10
2024-02-24T16:55:19.925Z,6.00
2024-02-24T16:57:46.882Z,6.00
2024-02-24T17:00:24.857Z,5.90
2024-02-24T17:02:51.902Z,5.90
2024-02-24T17:05:19.777Z,5.90
2024-02-24T17:07:46.820Z,5.80
2024-02-24T17:10:15.545Z,5.80
2024-02-24T17:12:42.623Z,5.80
2024-02-24T17:15:11.691Z,5.70
2024-02-24T17:17:53.043Z,5.70
2024-02-24T17:20:20.642Z,5.70
2024-02-24T17:22:47.740Z,5.70
2024-02-24T17:25:16.783Z,5.70
2024-02-24T17:27:45.925Z,5.70
2024-02-24T17:30:14.673Z,5.70
2024-02-24T17:32:41.702Z,5.70
2024-02-24T17:35:12.201Z,5.60
2024-02-24T17:37:42.860Z,5.70
2024-02-24T17:40:10.767Z,5.70
2024-02-24T17:42:37.770Z,5.60
2024-02-24T17:45:05.288Z,5.70
2024-02-24T17:47:32.371Z,5.60
2024-02-24T17:50:00.022Z,5.60
2024-02-24T17:52:27.060Z,5.60
2024-02-24T17:54:54.366Z,5.60
2024-02-24T17:57:21.769Z,5.70
2024-02-24T17:59:48.941Z,5.70
2024-02-24T18:02:16.073Z,5.70
2024-02-24T18:04:46.102Z,5.70
2024-02-24T18:07:13.118Z,5.70
2024-02-24T18:09:40.331Z,5.70
2024-02-24T18:12:08.149Z,5.70
2024-02-24T18:14:37.032Z,5.70
2024-02-24T18:17:04.502Z,5.70
2024-02-24T18:19:41.960Z,5.70
2024-02-24T18:22:08.968Z,5.70
2024-02-24T18:24:35.983Z,5.70
2024-02-24T18:27:03.356Z,5.70
2024-02-24T18:29:30.357Z,5.80
2024-02-24T18:31:58.002Z,5.70
2024-02-24T18:34:25.162Z,5.80
2024-02-24T18:36:52.185Z,5.80
2024-02-24T18:39:19.101Z,5.70
2024-02-24T18:41:46.162Z,5.70
2024-02-24T18:44:15.928Z,5.60
2024-02-24T18:46:43.368Z,5.60
2024-02-24T18:49:10.632Z,5.50
2024-02-24T18:51:38.070Z,5.50
2024-02-24T18:54:05.290Z,5.40
2024-02-24T18:56:32.509Z,5.40
2024-02-24T18:58:59.404Z,5.30
2024-02-24T19:01:26.976Z,5.30
2024-02-24T19:03:53.964Z,5.20
2024-02-24T19:06:20.973Z,5.20
2024-02-24T19:08:47.952Z,5.20
2024-02-24T19:11:17.774Z,5.10
2024-02-24T19:13:44.836Z,5.10
2024-02-24T19:16:12.002Z,5.10
2024-02-24T19:18:39.141Z,5.00
2024-02-24T19:21:06.261Z,5.00
2024-02-24T19:23:34.858Z,5.00
2024-02-24T19:26:01.853Z,5.00
2024-02-24T19:28:28.826Z,4.90
2024-02-24T19:30:55.730Z,4.90
2024-02-24T19:33:22.963Z,4.90
2024-02-24T19:35:50.037Z,4.90
2024-02-24T19:38:17.239Z,4.90
2024-02-24T19:41:02.416Z,5.00
2024-02-24T19:43:30.347Z,5.00
2024-02-24T19:45:58.733Z,5.10
2024-02-24T19:48:25.897Z,5.10
2024-02-24T19:50:53.070Z,5.10
2024-02-24T19:53:21.494Z,5.10
2024-02-24T19:55:48.499Z,5.10
2024-02-24T19:58:24.758Z,5.10
2024-02-24T20:01:00.999Z,5.10
2024-02-24T20:03:28.153Z,5.10
2024-02-24T20:05:55.403Z,5.10
2024-02-24T20:08:22.548Z,5.10
2024-02-24T20:10:49.523Z,5.10
2024-02-24T20:13:16.552Z,5.10
2024-02-24T20:15:43.457Z,5.10
2024-02-24T20:18:12.011Z,5.10
2024-02-24T20:20:42.250Z,5.10
2024-02-24T20:23:09.192Z,5.20
2024-02-24T20:25:36.237Z,5.20
2024-02-24T20:28:04.944Z,5.20
2024-02-24T20:30:33.325Z,5.20
2024-02-24T20:33:03.836Z,5.30
2024-02-24T20:35:31.666Z,5.30
2024-02-24T20:37:58.730Z,5.40
2024-02-24T20:40:27.055Z,5.30
2024-02-24T20:42:57.276Z,5.30
2024-02-24T20:45:24.204Z,5.30
2024-02-24T20:47:51.259Z,5.40
2024-02-24T20:50:18.440Z,5.40
2024-02-24T20:52:45.454Z,5.30
2024-02-24T20:55:12.455Z,5.30
2024-02-24T20:57:39.542Z,5.40
2024-02-24T21:00:07.282Z,5.40
2024-02-24T21:02:34.578Z,5.40
2024-02-24T21:05:01.680Z,5.30
2024-02-24T21:07:28.682Z,5.30
2024-02-24T21:09:55.690Z,5.30
2024-02-24T21:12:22.667Z,5.30
2024-02-24T21:14:49.695Z,5.40
2024-02-24T21:17:16.860Z,5.40
2024-02-24T21:19:44.323Z,5.40
2024-02-24T21:22:11.391Z,5.40
2024-02-24T21:24:38.411Z,5.40
2024-02-24T21:27:05.738Z,5.40
2024-02-24T21:29:33.005Z,5.40
2024-02-24T21:32:00.042Z,5.40
2024-02-24T21:34:27.376Z,5.40
2024-02-24T21:36:54.493Z,5.40
2024-02-24T21:39:21.454Z,5.40
2024-02-24T21:41:48.454Z,5.40
2024-02-24T21:44:15.382Z,5.40
2024-02-24T21:46:42.338Z,5.50
2024-02-24T21:49:09.430Z,5.50
2024-02-24T21:51:37.290Z,5.50
2024-02-24T21:54:05.158Z,5.50
2024-02-24T21:56:35.213Z,5.60
2024-02-24T21:59:02.303Z,5.60
2024-02-24T22:01:29.260Z,5.60
2024-02-24T22:03:56.285Z,5.60
2024-02-24T22:06:23.390Z,5.60
2024-02-24T22:08:50.399Z,5.70
2024-02-24T22:11:17.532Z,5.60
2024-02-24T22:13:45.488Z,5.70
2024-02-24T22:16:13.013Z,5.70
2024-02-24T22:18:40.276Z,5.70
2024-02-24T22:21:09.263Z,5.70
2024-02-24T22:23:36.399Z,5.70
2024-02-24T22:26:03.404Z,5.70
2024-02-24T22:28:30.370Z,5.70
2024-02-24T22:30:57.383Z,5.70
2024-02-24T22:33:24.542Z,5.70
2024-02-24T22:35:54.886Z,5.70
2024-02-24T22:38:22.357Z,5.70
2024-02-24T22:40:49.281Z,5.80
2024-02-24T22:43:16.406Z,5.80
2024-02-24T22:45:43.618Z,5.80
2024-02-24T22:48:11.622Z,5.80
2024-02-24T22:50:38.770Z,5.80
2024-02-24T22:53:05.961Z,5.80
2024-02-24T22:55:34.676Z,5.80
2024-02-24T22:58:01.967Z,5.80
2024-02-24T23:00:29.123Z,5.70
2024-02-24T23:02:56.406Z,5.70
2024-02-24T23:05:23.497Z,5.70
2024-02-24T23:07:51.014Z,5.70
2024-02-24T23:10:18.094Z,5.70
2024-02-24T23:12:45.246Z,5.70
2024-02-24T23:15:12.386Z,5.70
2024-02-24T23:17:41.146Z,5.70
2024-02-24T23:20:08.778Z,5.70
2024-02-24T23:22:35.865Z,5.70
2024-02-24T23:25:03.000Z,5.70
2024-02-24T23:27:29.991Z,5.70
2024-02-24T23:29:57.003Z,5.70
2024-02-24T23:32:24.098Z,5.80
2024-02-24T23:34:51.354Z,5.80
2024-02-24T23:37:18.265Z,5.80
2024-02-24T23:39:46.058Z,5.80
2024-02-24T23:42:13.171Z,5.80
2024-02-24T23:44:40.170Z,5.80
2024-02-24T23:47:07.171Z,5.80
2024-02-24T23:49:34.285Z,5.70
2024-02-24T23:52:01.284Z,5.70
2024-02-24T23:54:28.260Z,5.70
2024-02-24T23:56:55.851Z,5.70
2024-02-24T23:59:23.155Z,5.70
